createdAt,value
2019-01-24T05:44:16.569Z,0.60
2019-01-24T05:54:21.356Z,4.43
2019-01-24T06:04:26.347Z,0.20
2019-01-24T06:14:31.513Z,2.00
2019-01-24T06:24:36.808Z,0.20
2019-01-24T06:34:41.813Z,2.57
2019-01-24T06:44:46.811Z,0.17
2019-01-24T06:54:52.086Z,0.23
2019-01-24T07:04:57.242Z,0.40
2019-01-24T07:15:02.374Z,2.40
2019-01-24T07:25:10.830Z,1.47
2019-01-24T07:35:17.326Z,5.90
2019-01-24T07:45:29.229Z,4.40
2019-01-24T13:22:06.203Z,1.77
2019-01-24T18:49:43.039Z,34.35
2019-01-24T19:03:34.733Z,29.17
2019-01-24T19:13:39.229Z,32.27
2019-01-24T19:23:43.913Z,29.07
2019-01-24T19:33:48.317Z,29.13
2019-01-24T19:43:53.008Z,30.23
2019-01-24T19:53:57.413Z,29.50
2019-01-24T20:04:03.522Z,29.53
2019-01-24T20:14:08.151Z,40.60
2019-01-24T20:24:12.689Z,30.97
2019-01-24T20:34:17.232Z,26.80
2019-01-24T20:44:21.709Z,24.27
2019-01-24T20:54:26.054Z,20.77
2019-01-24T21:04:30.798Z,21.93
2019-01-24T21:14:38.610Z,19.73
2019-01-24T21:24:43.533Z,18.73
2019-01-24T21:34:47.998Z,16.27
2019-01-24T21:44:53.903Z,12.93
2019-01-24T21:54:58.502Z,13.63
2019-01-24T22:05:03.245Z,14.20
2019-01-24T22:15:10.802Z,11.97
2019-01-24T22:25:23.801Z,11.27
2019-01-24T22:35:28.225Z,11.03
2019-01-24T22:45:32.893Z,10.73
2019-01-24T22:55:37.601Z,8.00
2019-01-24T23:05:42.286Z,27.67
2019-01-24T23:15:46.703Z,25.30
2019-01-24T23:25:51.178Z,23.10
2019-01-24T23:35:55.556Z,20.20
2019-01-24T23:45:59.958Z,16.73
2019-01-24T23:56:04.458Z,17.03
